sensor_id;sensor_type;location;lat;lon;timestamp;P1;durP1;ratioP1;P2;durP2;ratioP2
69008;SDS011;56065;52.472;13.380;2023-03-01T00:00:51;21.42;;;8.75;;
69008;SDS011;56065;52.472;13.380;2023-03-01T00:03:17;18.00;;;7.63;;
69008;SDS011;56065;52.472;13.380;2023-03-01T00:05:45;20.00;;;7.47;;
69008;SDS011;56065;52.472;13.380;2023-03-01T00:08:12;22.35;;;8.63;;
69008;SDS011;56065;52.472;13.380;2023-03-01T00:10:37;19.87;;;7.67;;
69008;SDS011;56065;52.472;13.380;2023-03-01T00:13:03;18.77;;;8.00;;
69008;SDS011;56065;52.472;13.380;2023-03-01T00:15:30;20.98;;;9.15;;
69008;SDS011;56065;52.472;13.380;2023-03-01T00:17:56;24.33;;;10.30;;
69008;SDS011;56065;52.472;13.380;2023-03-01T00:20:22;27.50;;;9.85;;
69008;SDS011;56065;52.472;13.380;2023-03-01T00:22:47;22.67;;;9.50;;
69008;SDS011;56065;52.472;13.380;2023-03-01T00:25:13;24.93;;;9.83;;
69008;SDS011;56065;52.472;13.380;2023-03-01T00:27:38;28.45;;;11.15;;
69008;SDS011;56065;52.472;13.380;2023-03-01T00:30:04;22.13;;;8.97;;
69008;SDS011;56065;52.472;13.380;2023-03-01T00:32:30;25.10;;;8.90;;
69008;SDS011;56065;52.472;13.380;2023-03-01T00:34:55;21.38;;;8.20;;
69008;SDS011;56065;52.472;13.380;2023-03-01T00:37:21;19.87;;;8.37;;
69008;SDS011;56065;52.472;13.380;2023-03-01T00:39:47;18.33;;;7.63;;
69008;SDS011;56065;52.472;13.380;2023-03-01T00:42:13;19.75;;;7.95;;
69008;SDS011;56065;52.472;13.380;2023-03-01T00:44:38;22.93;;;8.00;;
69008;SDS011;56065;52.472;13.380;2023-03-01T00:47:03;22.30;;;8.77;;
69008;SDS011;56065;52.472;13.380;2023-03-01T00:49:29;21.53;;;9.13;;
69008;SDS011;56065;52.472;13.380;2023-03-01T00:51:54;21.97;;;9.00;;
69008;SDS011;56065;52.472;13.380;2023-03-01T00:54:20;22.00;;;8.30;;
69008;SDS011;56065;52.472;13.380;2023-03-01T00:56:45;23.75;;;8.82;;
69008;SDS011;56065;52.472;13.380;2023-03-01T00:59:10;20.50;;;8.07;;
69008;SDS011;56065;52.472;13.380;2023-03-01T01:01:36;20.13;;;7.90;;
69008;SDS011;56065;52.472;13.380;2023-03-01T01:04:05;23.13;;;8.60;;
69008;SDS011;56065;52.472;13.380;2023-03-01T01:06:36;22.40;;;9.30;;
69008;SDS011;56065;52.472;13.380;2023-03-01T01:09:04;24.88;;;9.00;;
69008;SDS011;56065;52.472;13.380;2023-03-01T01:11:31;23.02;;;8.68;;
69008;SDS011;56065;52.472;13.380;2023-03-01T01:13:57;26.40;;;9.25;;
69008;SDS011;56065;52.472;13.380;2023-03-01T01:16:24;24.30;;;8.60;;
69008;SDS011;56065;52.472;13.380;2023-03-01T01:18:50;24.13;;;8.73;;
69008;SDS011;56065;52.472;13.380;2023-03-01T01:21:17;23.50;;;8.77;;
69008;SDS011;56065;52.472;13.380;2023-03-01T01:23:44;20.47;;;8.80;;
69008;SDS011;56065;52.472;13.380;2023-03-01T01:26:11;21.35;;;8.75;;
69008;SDS011;56065;52.472;13.380;2023-03-01T01:28:39;22.48;;;8.73;;
69008;SDS011;56065;52.472;13.380;2023-03-01T01:31:04;26.63;;;9.80;;
69008;SDS011;56065;52.472;13.380;2023-03-01T01:33:30;22.27;;;8.52;;
69008;SDS011;56065;52.472;13.380;2023-03-01T01:35:56;22.33;;;8.70;;
69008;SDS011;56065;52.472;13.380;2023-03-01T01:38:21;23.57;;;9.03;;
69008;SDS011;56065;52.472;13.380;2023-03-01T01:40:47;20.75;;;8.00;;
69008;SDS011;56065;52.472;13.380;2023-03-01T01:46:06;23.57;;;8.13;;
69008;SDS011;56065;52.472;13.380;2023-03-01T01:48:44;19.75;;;7.88;;
69008;SDS011;56065;52.472;13.380;2023-03-01T01:51:14;22.80;;;8.18;;
69008;SDS011;56065;52.472;13.380;2023-03-01T01:53:47;22.08;;;8.43;;
69008;SDS011;56065;52.472;13.380;2023-03-01T01:56:16;19.63;;;8.20;;
69008;SDS011;56065;52.472;13.380;2023-03-01T01:58:43;22.40;;;9.00;;
69008;SDS011;56065;52.472;13.380;2023-03-01T02:01:10;25.70;;;9.35;;
69008;SDS011;56065;52.472;13.380;2023-03-01T02:03:36;23.50;;;8.82;;
69008;SDS011;56065;52.472;13.380;2023-03-01T02:06:11;22.40;;;8.25;;
69008;SDS011;56065;52.472;13.380;2023-03-01T02:08:42;22.55;;;8.73;;
69008;SDS011;56065;52.472;13.380;2023-03-01T02:11:09;22.17;;;9.40;;
69008;SDS011;56065;52.472;13.380;2023-03-01T02:13:35;22.52;;;7.90;;
69008;SDS011;56065;52.472;13.380;2023-03-01T02:16:05;22.27;;;9.23;;
69008;SDS011;56065;52.472;13.380;2023-03-01T02:18:34;24.65;;;9.30;;
69008;SDS011;56065;52.472;13.380;2023-03-01T02:21:03;23.73;;;9.30;;
69008;SDS011;56065;52.472;13.380;2023-03-01T02:23:30;21.50;;;9.27;;
69008;SDS011;56065;52.472;13.380;2023-03-01T02:28:38;24.25;;;9.40;;
69008;SDS011;56065;52.472;13.380;2023-03-01T02:31:06;22.17;;;9.25;;
69008;SDS011;56065;52.472;13.380;2023-03-01T02:33:52;22.23;;;9.35;;
69008;SDS011;56065;52.472;13.380;2023-03-01T02:36:19;20.20;;;8.13;;
69008;SDS011;56065;52.472;13.380;2023-03-01T02:38:48;21.98;;;8.95;;
69008;SDS011;56065;52.472;13.380;2023-03-01T02:41:16;19.75;;;9.05;;
69008;SDS011;56065;52.472;13.380;2023-03-01T02:43:44;21.55;;;8.82;;
69008;SDS011;56065;52.472;13.380;2023-03-01T02:46:28;24.30;;;9.52;;
69008;SDS011;56065;52.472;13.380;2023-03-01T02:48:55;19.88;;;8.38;;
69008;SDS011;56065;52.472;13.380;2023-03-01T02:54:26;21.42;;;9.10;;
69008;SDS011;56065;52.472;13.380;2023-03-01T02:56:55;20.55;;;8.68;;
69008;SDS011;56065;52.472;13.380;2023-03-01T02:59:22;22.75;;;8.90;;
69008;SDS011;56065;52.472;13.380;2023-03-01T03:01:53;22.77;;;9.23;;
69008;SDS011;56065;52.472;13.380;2023-03-01T03:04:19;17.90;;;8.03;;
69008;SDS011;56065;52.472;13.380;2023-03-01T03:06:46;24.00;;;9.07;;
69008;SDS011;56065;52.472;13.380;2023-03-01T03:09:14;20.87;;;8.43;;
69008;SDS011;56065;52.472;13.380;2023-03-01T03:11:40;22.48;;;8.18;;
69008;SDS011;56065;52.472;13.380;2023-03-01T03:14:08;22.65;;;9.07;;
69008;SDS011;56065;52.472;13.380;2023-03-01T03:16:44;23.88;;;8.98;;
69008;SDS011;56065;52.472;13.380;2023-03-01T03:19:12;22.02;;;8.70;;
69008;SDS011;56065;52.472;13.380;2023-03-01T03:21:38;20.63;;;9.03;;
69008;SDS011;56065;52.472;13.380;2023-03-01T03:24:04;22.40;;;8.90;;
69008;SDS011;56065;52.472;13.380;2023-03-01T03:26:30;23.85;;;9.55;;
69008;SDS011;56065;52.472;13.380;2023-03-01T03:28:56;24.70;;;10.13;;
69008;SDS011;56065;52.472;13.380;2023-03-01T03:31:22;19.42;;;9.05;;
69008;SDS011;56065;52.472;13.380;2023-03-01T03:33:47;23.93;;;9.67;;
69008;SDS011;56065;52.472;13.380;2023-03-01T03:36:16;23.97;;;9.33;;
69008;SDS011;56065;52.472;13.380;2023-03-01T03:38:43;23.30;;;9.45;;
69008;SDS011;56065;52.472;13.380;2023-03-01T03:41:10;22.92;;;9.23;;
69008;SDS011;56065;52.472;13.380;2023-03-01T03:43:37;22.08;;;8.88;;
69008;SDS011;56065;52.472;13.380;2023-03-01T03:46:04;24.00;;;9.20;;
69008;SDS011;56065;52.472;13.380;2023-03-01T03:48:31;24.75;;;9.63;;
69008;SDS011;56065;52.472;13.380;2023-03-01T03:51:00;20.73;;;8.80;;
69008;SDS011;56065;52.472;13.380;2023-03-01T03:53:26;21.57;;;8.93;;
69008;SDS011;56065;52.472;13.380;2023-03-01T03:55:53;22.00;;;9.50;;
69008;SDS011;56065;52.472;13.380;2023-03-01T03:58:19;24.57;;;9.17;;
69008;SDS011;56065;52.472;13.380;2023-03-01T04:00:47;21.42;;;8.55;;
69008;SDS011;56065;52.472;13.380;2023-03-01T04:03:14;22.73;;;8.88;;
69008;SDS011;56065;52.472;13.380;2023-03-01T04:05:41;23.38;;;8.20;;
69008;SDS011;56065;52.472;13.380;2023-03-01T04:08:07;23.83;;;9.05;;
69008;SDS011;56065;52.472;13.380;2023-03-01T04:10:37;23.90;;;8.80;;
69008;SDS011;56065;52.472;13.380;2023-03-01T04:13:05;25.17;;;8.57;;
69008;SDS011;56065;52.472;13.380;2023-03-01T04:15:32;26.10;;;9.18;;
69008;SDS011;56065;52.472;13.380;2023-03-01T04:17:58;23.70;;;9.20;;
69008;SDS011;56065;52.472;13.380;2023-03-01T04:20:26;18.57;;;7.97;;
69008;SDS011;56065;52.472;13.380;2023-03-01T04:22:59;22.13;;;8.27;;
69008;SDS011;56065;52.472;13.380;2023-03-01T04:25:35;21.20;;;8.27;;
69008;SDS011;56065;52.472;13.380;2023-03-01T04:28:07;23.52;;;7.97;;
69008;SDS011;56065;52.472;13.380;2023-03-01T04:30:33;25.02;;;9.00;;
69008;SDS011;56065;52.472;13.380;2023-03-01T04:33:01;23.33;;;8.83;;
69008;SDS011;56065;52.472;13.380;2023-03-01T04:35:28;22.27;;;9.45;;
69008;SDS011;56065;52.472;13.380;2023-03-01T04:37:54;21.23;;;8.63;;
69008;SDS011;56065;52.472;13.380;2023-03-01T04:40:19;23.43;;;9.17;;
69008;SDS011;56065;52.472;13.380;2023-03-01T04:42:46;22.45;;;9.07;;
69008;SDS011;56065;52.472;13.380;2023-03-01T04:45:12;24.17;;;9.97;;
69008;SDS011;56065;52.472;13.380;2023-03-01T04:47:40;24.23;;;9.48;;
69008;SDS011;56065;52.472;13.380;2023-03-01T04:50:08;21.20;;;8.98;;
69008;SDS011;56065;52.472;13.380;2023-03-01T04:52:34;21.52;;;9.48;;
69008;SDS011;56065;52.472;13.380;2023-03-01T04:55:00;21.25;;;9.43;;
69008;SDS011;56065;52.472;13.380;2023-03-01T04:57:25;22.90;;;9.23;;
69008;SDS011;56065;52.472;13.380;2023-03-01T04:59:51;22.80;;;9.00;;
69008;SDS011;56065;52.472;13.380;2023-03-01T05:02:16;22.43;;;9.17;;
69008;SDS011;56065;52.472;13.380;2023-03-01T05:04:41;23.05;;;9.75;;
69008;SDS011;56065;52.472;13.380;2023-03-01T05:07:07;21.88;;;9.35;;
69008;SDS011;56065;52.472;13.380;2023-03-01T05:09:32;25.33;;;9.30;;
69008;SDS011;56065;52.472;13.380;2023-03-01T05:11:57;20.33;;;8.70;;
69008;SDS011;56065;52.472;13.380;2023-03-01T05:14:23;23.03;;;8.97;;
69008;SDS011;56065;52.472;13.380;2023-03-01T05:16:48;24.27;;;9.20;;
69008;SDS011;56065;52.472;13.380;2023-03-01T05:19:13;20.43;;;8.90;;
69008;SDS011;56065;52.472;13.380;2023-03-01T05:21:40;25.20;;;9.15;;
69008;SDS011;56065;52.472;13.380;2023-03-01T05:24:26;23.08;;;9.52;;
69008;SDS011;56065;52.472;13.380;2023-03-01T05:26:52;24.02;;;10.00;;
69008;SDS011;56065;52.472;13.380;2023-03-01T05:29:18;25.77;;;9.27;;
69008;SDS011;56065;52.472;13.380;2023-03-01T05:31:49;27.20;;;10.55;;
69008;SDS011;56065;52.472;13.380;2023-03-01T05:34:26;25.92;;;9.48;;
69008;SDS011;56065;52.472;13.380;2023-03-01T05:36:53;23.38;;;9.43;;
69008;SDS011;56065;52.472;13.380;2023-03-01T05:39:22;23.37;;;9.17;;
69008;SDS011;56065;52.472;13.380;2023-03-01T05:41:54;24.02;;;10.27;;
69008;SDS011;56065;52.472;13.380;2023-03-01T05:44:21;24.55;;;9.07;;
69008;SDS011;56065;52.472;13.380;2023-03-01T05:46:48;24.23;;;9.82;;
69008;SDS011;56065;52.472;13.380;2023-03-01T05:49:14;24.35;;;9.43;;
69008;SDS011;56065;52.472;13.380;2023-03-01T05:51:40;24.37;;;10.33;;
69008;SDS011;56065;52.472;13.380;2023-03-01T05:54:06;26.95;;;10.07;;
69008;SDS011;56065;52.472;13.380;2023-03-01T05:56:32;29.00;;;9.97;;
69008;SDS011;56065;52.472;13.380;2023-03-01T05:59:03;29.08;;;10.35;;
69008;SDS011;56065;52.472;13.380;2023-03-01T06:01:30;27.27;;;10.90;;
69008;SDS011;56065;52.472;13.380;2023-03-01T06:03:55;26.45;;;11.35;;
69008;SDS011;56065;52.472;13.380;2023-03-01T06:06:21;28.00;;;10.25;;
69008;SDS011;56065;52.472;13.380;2023-03-01T06:08:47;27.05;;;10.57;;
69008;SDS011;56065;52.472;13.380;2023-03-01T06:11:13;26.13;;;10.53;;
69008;SDS011;56065;52.472;13.380;2023-03-01T06:13:38;26.97;;;10.27;;
69008;SDS011;56065;52.472;13.380;2023-03-01T06:16:06;30.30;;;11.03;;
69008;SDS011;56065;52.472;13.380;2023-03-01T06:18:32;27.38;;;11.20;;
69008;SDS011;56065;52.472;13.380;2023-03-01T06:20:57;26.07;;;10.37;;
69008;SDS011;56065;52.472;13.380;2023-03-01T06:23:23;26.00;;;10.38;;
69008;SDS011;56065;52.472;13.380;2023-03-01T06:25:48;20.70;;;9.83;;
69008;SDS011;56065;52.472;13.380;2023-03-01T06:28:14;26.75;;;10.25;;
69008;SDS011;56065;52.472;13.380;2023-03-01T06:30:39;30.23;;;10.43;;
69008;SDS011;56065;52.472;13.380;2023-03-01T06:33:05;28.83;;;10.80;;
69008;SDS011;56065;52.472;13.380;2023-03-01T06:35:30;29.40;;;11.47;;
69008;SDS011;56065;52.472;13.380;2023-03-01T06:37:57;27.10;;;11.30;;
69008;SDS011;56065;52.472;13.380;2023-03-01T06:40:23;23.08;;;10.68;;
69008;SDS011;56065;52.472;13.380;2023-03-01T06:42:49;25.90;;;10.93;;
69008;SDS011;56065;52.472;13.380;2023-03-01T06:45:15;24.60;;;10.10;;
69008;SDS011;56065;52.472;13.380;2023-03-01T06:47:42;24.73;;;11.13;;
69008;SDS011;56065;52.472;13.380;2023-03-01T06:50:08;24.17;;;10.50;;
69008;SDS011;56065;52.472;13.380;2023-03-01T06:52:33;24.37;;;10.40;;
69008;SDS011;56065;52.472;13.380;2023-03-01T06:54:59;26.87;;;10.40;;
69008;SDS011;56065;52.472;13.380;2023-03-01T06:57:24;24.00;;;10.80;;
69008;SDS011;56065;52.472;13.380;2023-03-01T06:59:50;22.37;;;9.73;;
69008;SDS011;56065;52.472;13.380;2023-03-01T07:02:15;23.50;;;10.63;;
69008;SDS011;56065;52.472;13.380;2023-03-01T07:04:41;28.37;;;10.40;;
69008;SDS011;56065;52.472;13.380;2023-03-01T07:07:07;24.92;;;10.43;;
69008;SDS011;56065;52.472;13.380;2023-03-01T07:09:32;25.52;;;9.95;;
69008;SDS011;56065;52.472;13.380;2023-03-01T07:11:58;25.87;;;10.77;;
69008;SDS011;56065;52.472;13.380;2023-03-01T07:14:23;23.00;;;10.43;;
69008;SDS011;56065;52.472;13.380;2023-03-01T07:16:50;24.77;;;9.98;;
69008;SDS011;56065;52.472;13.380;2023-03-01T07:19:16;24.73;;;10.80;;
69008;SDS011;56065;52.472;13.380;2023-03-01T07:21:42;25.23;;;11.17;;
69008;SDS011;56065;52.472;13.380;2023-03-01T07:24:08;24.63;;;10.87;;
69008;SDS011;56065;52.472;13.380;2023-03-01T07:26:33;25.42;;;11.38;;
69008;SDS011;56065;52.472;13.380;2023-03-01T07:28:59;27.00;;;11.63;;
69008;SDS011;56065;52.472;13.380;2023-03-01T07:31:25;26.20;;;11.85;;
69008;SDS011;56065;52.472;13.380;2023-03-01T07:33:53;23.73;;;11.18;;
69008;SDS011;56065;52.472;13.380;2023-03-01T07:36:18;24.52;;;11.18;;
69008;SDS011;56065;52.472;13.380;2023-03-01T07:38:44;23.27;;;10.17;;
69008;SDS011;56065;52.472;13.380;2023-03-01T07:41:09;24.27;;;12.33;;
69008;SDS011;56065;52.472;13.380;2023-03-01T07:43:35;26.80;;;12.33;;
69008;SDS011;56065;52.472;13.380;2023-03-01T07:46:00;24.37;;;11.23;;
69008;SDS011;56065;52.472;13.380;2023-03-01T07:48:27;22.55;;;12.00;;
69008;SDS011;56065;52.472;13.380;2023-03-01T07:50:53;25.23;;;12.75;;
69008;SDS011;56065;52.472;13.380;2023-03-01T07:53:19;23.70;;;12.20;;
69008;SDS011;56065;52.472;13.380;2023-03-01T07:55:44;24.17;;;12.17;;
69008;SDS011;56065;52.472;13.380;2023-03-01T07:58:09;23.93;;;11.70;;
69008;SDS011;56065;52.472;13.380;2023-03-01T08:00:35;22.27;;;11.10;;
69008;SDS011;56065;52.472;13.380;2023-03-01T08:03:00;20.97;;;11.30;;
69008;SDS011;56065;52.472;13.380;2023-03-01T08:05:26;21.87;;;11.20;;
69008;SDS011;56065;52.472;13.380;2023-03-01T08:07:52;23.60;;;11.85;;
69008;SDS011;56065;52.472;13.380;2023-03-01T08:10:17;24.42;;;12.82;;
69008;SDS011;56065;52.472;13.380;2023-03-01T08:12:43;19.63;;;10.27;;
69008;SDS011;56065;52.472;13.380;2023-03-01T08:15:08;21.63;;;10.43;;
69008;SDS011;56065;52.472;13.380;2023-03-01T08:17:34;21.95;;;9.98;;
69008;SDS011;56065;52.472;13.380;2023-03-01T08:19:59;20.20;;;10.37;;
69008;SDS011;56065;52.472;13.380;2023-03-01T08:22:25;20.03;;;10.20;;
69008;SDS011;56065;52.472;13.380;2023-03-01T08:24:50;19.83;;;11.17;;
69008;SDS011;56065;52.472;13.380;2023-03-01T08:27:16;18.83;;;10.37;;
69008;SDS011;56065;52.472;13.380;2023-03-01T08:29:41;21.23;;;10.30;;
69008;SDS011;56065;52.472;13.380;2023-03-01T08:32:07;22.53;;;12.07;;
69008;SDS011;56065;52.472;13.380;2023-03-01T08:34:32;21.15;;;12.05;;
69008;SDS011;56065;52.472;13.380;2023-03-01T08:37:00;21.43;;;11.10;;
69008;SDS011;56065;52.472;13.380;2023-03-01T08:39:26;21.05;;;11.10;;
69008;SDS011;56065;52.472;13.380;2023-03-01T08:41:52;21.57;;;12.37;;
69008;SDS011;56065;52.472;13.380;2023-03-01T08:44:17;21.13;;;11.70;;
69008;SDS011;56065;52.472;13.380;2023-03-01T08:46:43;21.00;;;10.27;;
69008;SDS011;56065;52.472;13.380;2023-03-01T08:49:14;17.08;;;9.23;;
69008;SDS011;56065;52.472;13.380;2023-03-01T08:51:41;14.45;;;8.00;;
69008;SDS011;56065;52.472;13.380;2023-03-01T08:54:11;11.60;;;5.60;;
69008;SDS011;56065;52.472;13.380;2023-03-01T08:56:39;10.27;;;5.25;;
69008;SDS011;56065;52.472;13.380;2023-03-01T08:59:05;12.00;;;5.72;;
69008;SDS011;56065;52.472;13.380;2023-03-01T09:01:30;11.63;;;5.80;;
69008;SDS011;56065;52.472;13.380;2023-03-01T09:03:56;11.53;;;5.60;;
69008;SDS011;56065;52.472;13.380;2023-03-01T09:06:22;10.88;;;5.05;;
69008;SDS011;56065;52.472;13.380;2023-03-01T09:08:48;9.17;;;4.37;;
69008;SDS011;56065;52.472;13.380;2023-03-01T09:11:17;8.98;;;4.63;;
69008;SDS011;56065;52.472;13.380;2023-03-01T09:13:45;11.05;;;4.75;;
69008;SDS011;56065;52.472;13.380;2023-03-01T09:16:12;10.20;;;4.43;;
69008;SDS011;56065;52.472;13.380;2023-03-01T09:18:39;9.47;;;4.40;;
69008;SDS011;56065;52.472;13.380;2023-03-01T09:21:06;10.13;;;4.85;;
69008;SDS011;56065;52.472;13.380;2023-03-01T09:23:36;9.48;;;4.25;;
69008;SDS011;56065;52.472;13.380;2023-03-01T09:26:07;9.67;;;4.50;;
69008;SDS011;56065;52.472;13.380;2023-03-01T09:28:37;8.82;;;3.90;;
69008;SDS011;56065;52.472;13.380;2023-03-01T09:31:03;9.23;;;3.83;;
69008;SDS011;56065;52.472;13.380;2023-03-01T09:33:30;8.98;;;3.00;;
69008;SDS011;56065;52.472;13.380;2023-03-01T09:35:57;8.15;;;3.90;;
69008;SDS011;56065;52.472;13.380;2023-03-01T09:38:23;8.90;;;4.17;;
69008;SDS011;56065;52.472;13.380;2023-03-01T09:40:49;9.82;;;4.82;;
69008;SDS011;56065;52.472;13.380;2023-03-01T09:45:59;9.35;;;4.30;;
69008;SDS011;56065;52.472;13.380;2023-03-01T09:48:30;10.02;;;4.50;;
69008;SDS011;56065;52.472;13.380;2023-03-01T09:51:02;10.80;;;4.60;;
69008;SDS011;56065;52.472;13.380;2023-03-01T09:53:33;12.55;;;4.30;;
69008;SDS011;56065;52.472;13.380;2023-03-01T09:56:11;9.55;;;4.50;;
69008;SDS011;56065;52.472;13.380;2023-03-01T10:01:40;9.85;;;4.55;;
69008;SDS011;56065;52.472;13.380;2023-03-01T10:09:35;11.63;;;4.68;;
69008;SDS011;56065;52.472;13.380;2023-03-01T10:12:04;12.98;;;4.95;;
69008;SDS011;56065;52.472;13.380;2023-03-01T10:14:36;9.93;;;4.63;;
69008;SDS011;56065;52.472;13.380;2023-03-01T10:17:12;9.43;;;5.07;;
69008;SDS011;56065;52.472;13.380;2023-03-01T10:19:46;10.43;;;4.88;;
69008;SDS011;56065;52.472;13.380;2023-03-01T10:22:13;11.27;;;4.90;;
69008;SDS011;56065;52.472;13.380;2023-03-01T10:24:43;15.38;;;5.10;;
69008;SDS011;56065;52.472;13.380;2023-03-01T10:27:14;11.15;;;4.63;;
69008;SDS011;56065;52.472;13.380;2023-03-01T10:29:59;10.23;;;4.60;;
69008;SDS011;56065;52.472;13.380;2023-03-01T10:32:32;10.13;;;4.47;;
69008;SDS011;56065;52.472;13.380;2023-03-01T10:34:58;11.70;;;5.03;;
69008;SDS011;56065;52.472;13.380;2023-03-01T10:37:23;12.73;;;4.97;;
69008;SDS011;56065;52.472;13.380;2023-03-01T10:40:00;11.50;;;5.35;;
69008;SDS011;56065;52.472;13.380;2023-03-01T10:42:35;9.23;;;4.60;;
69008;SDS011;56065;52.472;13.380;2023-03-01T10:51:12;10.60;;;5.18;;
69008;SDS011;56065;52.472;13.380;2023-03-01T10:53:41;9.85;;;4.50;;
69008;SDS011;56065;52.472;13.380;2023-03-01T10:56:12;10.57;;;5.07;;
69008;SDS011;56065;52.472;13.380;2023-03-01T11:01:32;10.95;;;4.82;;
69008;SDS011;56065;52.472;13.380;2023-03-01T11:04:08;9.75;;;4.68;;
69008;SDS011;56065;52.472;13.380;2023-03-01T11:06:36;11.57;;;4.78;;
69008;SDS011;56065;52.472;13.380;2023-03-01T11:09:20;11.50;;;5.27;;
69008;SDS011;56065;52.472;13.380;2023-03-01T11:11:53;12.00;;;5.32;;
69008;SDS011;56065;52.472;13.380;2023-03-01T11:14:24;12.75;;;5.20;;
69008;SDS011;56065;52.472;13.380;2023-03-01T11:17:02;10.63;;;4.75;;
69008;SDS011;56065;52.472;13.380;2023-03-01T11:22:46;14.27;;;4.77;;
69008;SDS011;56065;52.472;13.380;2023-03-01T11:25:14;10.07;;;4.75;;
69008;SDS011;56065;52.472;13.380;2023-03-01T11:27:43;11.05;;;4.90;;
69008;SDS011;56065;52.472;13.380;2023-03-01T11:35:33;10.05;;;4.45;;
69008;SDS011;56065;52.472;13.380;2023-03-01T11:38:04;9.27;;;4.22;;
69008;SDS011;56065;52.472;13.380;2023-03-01T11:40:49;10.25;;;4.20;;
69008;SDS011;56065;52.472;13.380;2023-03-01T11:57:13;9.93;;;3.90;;
69008;SDS011;56065;52.472;13.380;2023-03-01T12:02:50;8.60;;;3.88;;
69008;SDS011;56065;52.472;13.380;2023-03-01T12:08:14;9.32;;;4.25;;
69008;SDS011;56065;52.472;13.380;2023-03-01T12:13:56;11.75;;;3.85;;
69008;SDS011;56065;52.472;13.380;2023-03-01T12:22:06;8.32;;;3.78;;
69008;SDS011;56065;52.472;13.380;2023-03-01T12:44:55;10.65;;;3.10;;
69008;SDS011;56065;52.472;13.380;2023-03-01T12:50:01;6.88;;;2.80;;
69008;SDS011;56065;52.472;13.380;2023-03-01T12:52:38;6.97;;;2.93;;
69008;SDS011;56065;52.472;13.380;2023-03-01T12:55:16;6.55;;;2.50;;
69008;SDS011;56065;52.472;13.380;2023-03-01T13:03:48;7.88;;;3.05;;
69008;SDS011;56065;52.472;13.380;2023-03-01T13:06:32;6.27;;;2.40;;
69008;SDS011;56065;52.472;13.380;2023-03-01T13:11:55;7.68;;;2.30;;
69008;SDS011;56065;52.472;13.380;2023-03-01T13:16:50;6.40;;;2.50;;
69008;SDS011;56065;52.472;13.380;2023-03-01T13:19:25;8.27;;;2.38;;
69008;SDS011;56065;52.472;13.380;2023-03-01T13:21:54;9.35;;;2.55;;
69008;SDS011;56065;52.472;13.380;2023-03-01T13:24:27;5.85;;;2.20;;
69008;SDS011;56065;52.472;13.380;2023-03-01T13:29:43;6.20;;;2.20;;
69008;SDS011;56065;52.472;13.380;2023-03-01T13:32:23;10.75;;;2.50;;
69008;SDS011;56065;52.472;13.380;2023-03-01T13:35:00;5.78;;;2.15;;
69008;SDS011;56065;52.472;13.380;2023-03-01T13:37:32;8.50;;;2.20;;
69008;SDS011;56065;52.472;13.380;2023-03-01T13:40:01;7.72;;;2.40;;
69008;SDS011;56065;52.472;13.380;2023-03-01T13:42:34;6.90;;;2.03;;
69008;SDS011;56065;52.472;13.380;2023-03-01T13:45:14;8.05;;;2.22;;
69008;SDS011;56065;52.472;13.380;2023-03-01T13:47:52;6.68;;;2.30;;
69008;SDS011;56065;52.472;13.380;2023-03-01T13:50:24;9.02;;;1.88;;
69008;SDS011;56065;52.472;13.380;2023-03-01T13:52:53;6.35;;;2.00;;
69008;SDS011;56065;52.472;13.380;2023-03-01T13:55:36;8.97;;;2.23;;
69008;SDS011;56065;52.472;13.380;2023-03-01T13:58:48;6.78;;;2.20;;
69008;SDS011;56065;52.472;13.380;2023-03-01T14:00:56;7.03;;;1.88;;
69008;SDS011;56065;52.472;13.380;2023-03-01T14:03:26;6.47;;;2.03;;
69008;SDS011;56065;52.472;13.380;2023-03-01T14:06:09;6.40;;;1.70;;
69008;SDS011;56065;52.472;13.380;2023-03-01T14:08:38;7.27;;;2.03;;
69008;SDS011;56065;52.472;13.380;2023-03-01T14:17:00;5.50;;;2.00;;
69008;SDS011;56065;52.472;13.380;2023-03-01T14:19:29;6.80;;;2.13;;
69008;SDS011;56065;52.472;13.380;2023-03-01T14:24:50;7.50;;;2.17;;
69008;SDS011;56065;52.472;13.380;2023-03-01T14:27:28;6.85;;;2.13;;
69008;SDS011;56065;52.472;13.380;2023-03-01T14:30:00;7.45;;;2.10;;
69008;SDS011;56065;52.472;13.380;2023-03-01T14:32:29;6.80;;;2.40;;
69008;SDS011;56065;52.472;13.380;2023-03-01T14:34:57;7.47;;;2.30;;
69008;SDS011;56065;52.472;13.380;2023-03-01T14:37:25;7.60;;;2.00;;
69008;SDS011;56065;52.472;13.380;2023-03-01T14:39:53;7.82;;;2.20;;
69008;SDS011;56065;52.472;13.380;2023-03-01T14:42:19;7.20;;;2.05;;
69008;SDS011;56065;52.472;13.380;2023-03-01T14:44:47;6.93;;;2.15;;
69008;SDS011;56065;52.472;13.380;2023-03-01T14:47:16;6.37;;;2.40;;
69008;SDS011;56065;52.472;13.380;2023-03-01T14:49:50;8.65;;;2.30;;
69008;SDS011;56065;52.472;13.380;2023-03-01T14:52:23;7.00;;;2.30;;
69008;SDS011;56065;52.472;13.380;2023-03-01T14:54:55;6.35;;;1.98;;
69008;SDS011;56065;52.472;13.380;2023-03-01T14:57:22;6.40;;;2.10;;
69008;SDS011;56065;52.472;13.380;2023-03-01T14:59:50;8.30;;;2.20;;
69008;SDS011;56065;52.472;13.380;2023-03-01T15:02:19;5.43;;;1.80;;
69008;SDS011;56065;52.472;13.380;2023-03-01T15:04:49;6.43;;;1.87;;
69008;SDS011;56065;52.472;13.380;2023-03-01T15:07:17;6.25;;;2.20;;
69008;SDS011;56065;52.472;13.380;2023-03-01T15:09:43;7.30;;;2.05;;
69008;SDS011;56065;52.472;13.380;2023-03-01T15:12:33;5.20;;;1.83;;
69008;SDS011;56065;52.472;13.380;2023-03-01T15:15:00;6.78;;;1.75;;
69008;SDS011;56065;52.472;13.380;2023-03-01T15:17:33;6.03;;;1.47;;
69008;SDS011;56065;52.472;13.380;2023-03-01T15:20:04;6.22;;;1.55;;
69008;SDS011;56065;52.472;13.380;2023-03-01T15:22:31;6.03;;;1.77;;
69008;SDS011;56065;52.472;13.380;2023-03-01T15:24:57;7.17;;;1.60;;
69008;SDS011;56065;52.472;13.380;2023-03-01T15:27:23;6.97;;;1.60;;
69008;SDS011;56065;52.472;13.380;2023-03-01T15:29:53;6.87;;;1.67;;
69008;SDS011;56065;52.472;13.380;2023-03-01T15:32:32;7.53;;;1.70;;
69008;SDS011;56065;52.472;13.380;2023-03-01T15:35:00;6.07;;;1.50;;
69008;SDS011;56065;52.472;13.380;2023-03-01T15:40:21;5.00;;;1.50;;
69008;SDS011;56065;52.472;13.380;2023-03-01T15:42:49;6.13;;;1.83;;
69008;SDS011;56065;52.472;13.380;2023-03-01T15:47:41;5.87;;;1.63;;
69008;SDS011;56065;52.472;13.380;2023-03-01T15:50:27;5.93;;;1.70;;
69008;SDS011;56065;52.472;13.380;2023-03-01T15:52:54;6.13;;;1.63;;
69008;SDS011;56065;52.472;13.380;2023-03-01T15:57:58;6.78;;;1.90;;
69008;SDS011;56065;52.472;13.380;2023-03-01T16:00:25;5.60;;;2.00;;
69008;SDS011;56065;52.472;13.380;2023-03-01T16:02:51;6.35;;;2.03;;
69008;SDS011;56065;52.472;13.380;2023-03-01T16:05:20;6.77;;;1.83;;
69008;SDS011;56065;52.472;13.380;2023-03-01T16:07:45;6.75;;;1.73;;
69008;SDS011;56065;52.472;13.380;2023-03-01T16:10:11;5.40;;;1.60;;
69008;SDS011;56065;52.472;13.380;2023-03-01T16:12:37;6.00;;;1.65;;
69008;SDS011;56065;52.472;13.380;2023-03-01T16:15:04;5.47;;;1.65;;
69008;SDS011;56065;52.472;13.380;2023-03-01T16:17:36;6.38;;;1.92;;
69008;SDS011;56065;52.472;13.380;2023-03-01T16:20:01;6.43;;;1.90;;
69008;SDS011;56065;52.472;13.380;2023-03-01T16:22:27;6.53;;;2.07;;
69008;SDS011;56065;52.472;13.380;2023-03-01T16:24:53;7.40;;;2.00;;
69008;SDS011;56065;52.472;13.380;2023-03-01T16:27:18;7.53;;;1.63;;
69008;SDS011;56065;52.472;13.380;2023-03-01T16:29:45;8.50;;;2.05;;